createdAt,value
2019-03-09T00:01:29.584Z,8.63
2019-03-09T00:03:59.282Z,12.47
2019-03-09T00:06:29.096Z,6.57
2019-03-09T00:08:58.713Z,11.37
2019-03-09T00:11:28.739Z,6.80
2019-03-09T00:13:58.044Z,10.43
2019-03-09T00:16:29.833Z,5.20
2019-03-09T00:18:59.670Z,9.80
2019-03-09T00:21:29.020Z,7.00
2019-03-09T00:24:20.357Z,7.17
2019-03-09T00:27:14.726Z,10.03
2019-03-09T00:29:55.871Z,12.33
2019-03-09T00:32:26.994Z,14.30
2019-03-09T00:34:57.059Z,12.50
2019-03-09T00:37:26.361Z,6.53
2019-03-09T00:39:56.351Z,14.90
2019-03-09T00:42:26.162Z,13.63
2019-03-09T00:44:55.663Z,6.20
2019-03-09T00:47:25.127Z,10.50
2019-03-09T00:49:54.913Z,7.60
2019-03-09T00:52:24.225Z,10.50
2019-03-09T00:54:53.671Z,11.03
2019-03-09T00:57:23.551Z,8.53
2019-03-09T00:59:57.219Z,12.60
2019-03-09T01:02:28.398Z,5.90
2019-03-09T01:04:58.147Z,7.57
2019-03-09T01:07:27.554Z,6.07
2019-03-09T01:09:56.847Z,6.10
2019-03-09T01:12:26.527Z,2.80
2019-03-09T01:14:55.815Z,3.70
2019-03-09T01:17:25.077Z,3.07
2019-03-09T01:19:54.650Z,3.50
2019-03-09T01:22:23.939Z,7.23
2019-03-09T01:24:53.196Z,9.57
2019-03-09T01:27:22.922Z,9.63
2019-03-09T01:29:52.613Z,2.70
2019-03-09T01:32:23.448Z,3.73
2019-03-09T01:34:55.243Z,3.60
2019-03-09T01:37:24.549Z,3.30
2019-03-09T01:39:54.040Z,5.40
2019-03-09T01:42:25.403Z,5.50
2019-03-09T01:44:54.716Z,3.23
2019-03-09T01:47:26.386Z,4.70
2019-03-09T01:49:55.658Z,6.80
2019-03-09T01:52:24.964Z,4.43
2019-03-09T01:54:55.780Z,2.63
2019-03-09T01:57:25.200Z,15.10
2019-03-09T01:59:57.034Z,3.50
2019-03-09T02:02:26.954Z,2.83
2019-03-09T02:04:56.243Z,12.57
2019-03-09T02:07:25.523Z,4.50
2019-03-09T02:09:55.146Z,4.53
2019-03-09T02:12:24.385Z,4.67
2019-03-09T02:14:53.662Z,14.53
2019-03-09T02:17:23.526Z,7.17
2019-03-09T02:19:52.841Z,9.83
2019-03-09T02:22:22.133Z,8.67
2019-03-09T02:24:51.827Z,9.93
2019-03-09T02:27:21.108Z,6.03
2019-03-09T02:29:50.607Z,7.33
2019-03-09T02:32:22.352Z,9.50
2019-03-09T02:34:51.937Z,12.80
2019-03-09T02:37:21.276Z,8.43
2019-03-09T02:39:55.910Z,2.77
2019-03-09T02:42:25.191Z,4.07
2019-03-09T02:44:54.523Z,3.97
2019-03-09T02:47:23.769Z,9.40
2019-03-09T02:49:53.024Z,10.93
2019-03-09T02:52:23.119Z,8.83
2019-03-09T02:54:52.354Z,2.80
2019-03-09T02:57:21.585Z,7.33
2019-03-09T02:59:51.430Z,10.10
2019-03-09T03:02:34.046Z,2.00
2019-03-09T03:05:04.884Z,6.70
2019-03-09T03:07:34.145Z,5.00
2019-03-09T03:10:06.273Z,4.20
2019-03-09T03:12:35.617Z,7.70
2019-03-09T03:15:05.370Z,7.83
2019-03-09T03:17:36.312Z,7.73
2019-03-09T03:20:09.098Z,8.73
2019-03-09T03:22:38.656Z,8.47
2019-03-09T03:25:08.371Z,9.47
2019-03-09T03:27:37.682Z,4.90
2019-03-09T03:30:07.117Z,4.53
2019-03-09T03:32:37.482Z,3.77
2019-03-09T03:35:07.421Z,4.20
2019-03-09T03:37:36.669Z,7.70
2019-03-09T03:40:09.504Z,4.07
2019-03-09T03:42:38.844Z,3.10
2019-03-09T03:45:08.108Z,7.13
2019-03-09T03:47:37.876Z,6.90
2019-03-09T03:50:07.160Z,4.20
2019-03-09T03:52:36.434Z,11.20
2019-03-09T03:55:06.290Z,3.53
2019-03-09T03:57:35.518Z,8.90
2019-03-09T04:00:06.325Z,3.33
2019-03-09T04:02:36.185Z,5.03
2019-03-09T04:05:06.361Z,3.37
2019-03-09T04:07:35.564Z,4.37
2019-03-09T04:10:06.237Z,3.37
2019-03-09T04:12:35.617Z,3.90
2019-03-09T04:15:05.132Z,1.13
2019-03-09T04:17:38.004Z,3.17
2019-03-09T04:20:07.741Z,2.73
2019-03-09T04:22:36.952Z,2.90
2019-03-09T04:25:06.689Z,2.53
2019-03-09T04:27:36.445Z,4.60
2019-03-09T04:30:09.165Z,4.23
2019-03-09T04:32:38.380Z,1.97
2019-03-09T04:35:07.793Z,1.30
2019-03-09T04:37:37.354Z,3.20
2019-03-09T04:40:06.833Z,2.23
2019-03-09T04:42:36.375Z,2.53
2019-03-09T04:45:06.740Z,0.90
2019-03-09T04:47:36.204Z,2.40
2019-03-09T04:50:06.875Z,0.83
2019-03-09T04:52:36.440Z,3.73
2019-03-09T04:55:05.999Z,1.53
2019-03-09T04:57:35.288Z,6.33
2019-03-09T05:00:07.040Z,1.17
2019-03-09T05:02:36.247Z,1.17
2019-03-09T05:05:07.366Z,1.03
2019-03-09T05:07:57.436Z,3.43
2019-03-09T05:10:39.726Z,3.80
2019-03-09T05:13:24.796Z,1.73
2019-03-09T05:15:54.162Z,0.80
2019-03-09T05:18:23.970Z,3.50
2019-03-09T05:20:53.242Z,4.47
2019-03-09T05:23:22.537Z,2.43
2019-03-09T05:25:52.252Z,1.43
2019-03-09T05:28:21.502Z,4.60
2019-03-09T05:30:50.845Z,1.70
2019-03-09T05:33:20.459Z,6.27
2019-03-09T05:35:49.739Z,1.30
2019-03-09T05:38:18.999Z,1.93
2019-03-09T05:40:48.549Z,1.27
2019-03-09T05:43:17.794Z,3.07
2019-03-09T05:45:47.449Z,1.57
2019-03-09T05:48:16.650Z,1.37
2019-03-09T05:50:45.895Z,1.23
2019-03-09T05:53:20.667Z,1.30
2019-03-09T05:55:49.918Z,1.50
2019-03-09T05:58:19.141Z,0.80
2019-03-09T06:00:48.917Z,1.93
2019-03-09T06:03:18.170Z,7.93
2019-03-09T06:05:58.779Z,1.30
2019-03-09T06:08:29.381Z,2.33
2019-03-09T06:10:58.620Z,3.27
2019-03-09T06:13:27.891Z,1.90
2019-03-09T06:15:57.458Z,2.50
2019-03-09T06:18:26.830Z,1.47
2019-03-09T06:20:58.877Z,4.33
2019-03-09T06:23:28.565Z,2.00
2019-03-09T06:25:57.846Z,2.40
2019-03-09T06:28:27.591Z,1.90
2019-03-09T06:30:59.378Z,1.10
2019-03-09T06:33:38.740Z,1.43
2019-03-09T06:36:28.949Z,2.80
2019-03-09T06:39:12.891Z,4.30
2019-03-09T06:42:41.695Z,0.80
2019-03-09T06:45:13.069Z,0.90
2019-03-09T06:47:42.337Z,4.30
2019-03-09T06:50:13.890Z,0.63
2019-03-09T06:52:43.517Z,1.47
2019-03-09T06:55:13.036Z,0.60
2019-03-09T06:57:42.282Z,1.13
2019-03-09T07:00:40.538Z,1.00
2019-03-09T07:03:10.582Z,1.10
2019-03-09T07:05:40.806Z,1.00
2019-03-09T07:08:10.121Z,0.80
2019-03-09T07:10:40.276Z,2.93
2019-03-09T07:13:09.878Z,1.17
2019-03-09T07:15:41.209Z,0.70
2019-03-09T07:18:24.430Z,0.80
2019-03-09T07:20:54.073Z,1.90
2019-03-09T07:23:23.332Z,0.87
2019-03-09T07:25:52.616Z,1.37
2019-03-09T07:28:22.528Z,1.23
2019-03-09T07:30:51.844Z,1.67
2019-03-09T07:33:21.114Z,0.70
2019-03-09T07:35:50.847Z,1.33
2019-03-09T07:38:20.169Z,0.70
2019-03-09T07:40:49.462Z,2.43
2019-03-09T07:43:20.510Z,12.00
2019-03-09T07:45:49.778Z,0.60
2019-03-09T07:48:19.133Z,0.63
2019-03-09T07:50:48.792Z,2.40
2019-03-09T07:53:18.049Z,0.90
2019-03-09T07:55:47.436Z,2.30
2019-03-09T07:58:17.115Z,3.33
2019-03-09T08:00:46.551Z,0.60
2019-03-09T08:03:15.793Z,0.73
2019-03-09T08:05:45.470Z,2.83
2019-03-09T08:08:14.922Z,0.80
2019-03-09T08:10:44.213Z,1.13
2019-03-09T08:13:14.129Z,0.70
2019-03-09T08:15:43.456Z,1.60
2019-03-09T08:18:12.911Z,0.53
2019-03-09T08:20:42.731Z,2.10
2019-03-09T08:23:14.062Z,0.90
2019-03-09T08:25:43.311Z,1.03
2019-03-09T08:28:13.003Z,1.13
2019-03-09T08:30:42.347Z,1.13
2019-03-09T08:33:11.602Z,1.00
2019-03-09T08:35:41.343Z,0.70
2019-03-09T08:38:10.591Z,3.50
2019-03-09T08:40:39.846Z,0.73
2019-03-09T08:43:09.844Z,10.03
2019-03-09T08:45:39.235Z,0.80
2019-03-09T08:48:08.516Z,0.90
2019-03-09T08:50:38.152Z,1.33
2019-03-09T08:53:07.409Z,3.70
2019-03-09T08:55:36.742Z,0.70
2019-03-09T08:58:06.619Z,1.00
2019-03-09T09:00:36.195Z,0.70
2019-03-09T09:03:05.395Z,0.80
2019-03-09T09:05:35.130Z,0.60
2019-03-09T09:08:07.392Z,0.83
2019-03-09T09:10:36.671Z,0.97
2019-03-09T09:13:07.445Z,0.80
2019-03-09T09:15:37.657Z,0.60
2019-03-09T09:18:07.503Z,0.60
2019-03-09T09:20:37.145Z,0.60
2019-03-09T09:23:07.788Z,0.60
2019-03-09T09:25:37.132Z,0.53
2019-03-09T09:28:09.640Z,2.63
2019-03-09T09:30:39.909Z,0.87
2019-03-09T09:33:09.928Z,0.97
2019-03-09T09:35:39.551Z,1.17
2019-03-09T09:38:09.338Z,0.50
2019-03-09T09:40:38.616Z,0.80
2019-03-09T09:43:08.259Z,0.60
2019-03-09T09:45:37.563Z,0.57
2019-03-09T09:48:08.266Z,0.90
2019-03-09T09:50:37.550Z,0.50
2019-03-09T09:53:06.801Z,0.90
2019-03-09T09:55:36.581Z,0.70
2019-03-09T09:58:11.577Z,0.70
2019-03-09T10:00:40.897Z,0.97
2019-03-09T10:03:10.587Z,0.63
2019-03-09T10:05:39.934Z,0.70
2019-03-09T10:08:09.288Z,0.40
2019-03-09T10:10:42.371Z,0.87
2019-03-09T10:13:11.770Z,0.57
2019-03-09T10:15:41.005Z,0.50
2019-03-09T10:18:11.622Z,1.17
2019-03-09T10:20:41.048Z,1.33
2019-03-09T10:23:12.638Z,0.70
2019-03-09T10:25:42.419Z,0.53
2019-03-09T10:28:11.757Z,0.60
2019-03-09T10:30:42.608Z,0.50
2019-03-09T10:33:11.850Z,0.50
2019-03-09T10:35:41.215Z,1.23
2019-03-09T10:38:10.800Z,0.73
2019-03-09T10:40:40.198Z,0.53
2019-03-09T10:43:09.562Z,1.10
2019-03-09T10:45:39.267Z,0.60
2019-03-09T10:48:08.514Z,1.23
2019-03-09T10:50:37.872Z,0.60
2019-03-09T10:53:07.671Z,0.63
2019-03-09T10:55:38.386Z,0.50
2019-03-09T10:58:07.767Z,0.50
2019-03-09T11:00:38.127Z,1.53
2019-03-09T11:03:07.456Z,0.53
2019-03-09T11:05:36.765Z,0.60
2019-03-09T11:08:09.416Z,0.50
2019-03-09T11:10:38.781Z,0.50
2019-03-09T11:13:08.079Z,0.97
2019-03-09T11:15:38.021Z,0.50
2019-03-09T11:18:07.495Z,0.53
2019-03-09T11:20:38.089Z,2.40
2019-03-09T11:23:08.942Z,0.97
2019-03-09T11:25:38.216Z,2.30
2019-03-09T11:28:12.635Z,0.60
2019-03-09T11:30:42.377Z,2.07
2019-03-09T11:33:11.647Z,0.63
2019-03-09T11:35:42.709Z,0.60
2019-03-09T11:38:12.577Z,0.50
2019-03-09T11:40:43.282Z,1.10
2019-03-09T11:43:13.025Z,0.50
2019-03-09T11:45:43.057Z,0.80
2019-03-09T11:48:12.390Z,0.50
2019-03-09T11:50:41.889Z,0.70
2019-03-09T11:53:11.698Z,0.60
2019-03-09T11:55:40.970Z,1.90
2019-03-09T11:58:10.252Z,0.40
2019-03-09T12:00:40.415Z,1.80
2019-03-09T12:03:09.721Z,1.20
2019-03-09T12:05:39.052Z,1.60
2019-03-09T12:08:08.706Z,0.70
2019-03-09T12:10:38.212Z,0.60
2019-03-09T12:13:07.872Z,0.57
2019-03-09T12:15:37.773Z,0.83
2019-03-09T12:18:07.925Z,0.80
2019-03-09T12:20:37.621Z,1.00
2019-03-09T12:23:16.872Z,0.93
2019-03-09T12:25:46.394Z,0.90
2019-03-09T12:28:15.782Z,1.17
2019-03-09T12:30:45.153Z,0.60
2019-03-09T12:33:14.595Z,0.57
2019-03-09T12:35:44.695Z,2.13
2019-03-09T12:38:14.141Z,5.27
2019-03-09T12:40:43.995Z,8.63
2019-03-09T12:43:17.496Z,2.40
2019-03-09T12:45:47.895Z,2.03
2019-03-09T12:48:17.396Z,6.13
2019-03-09T12:50:47.190Z,0.87
2019-03-09T12:53:16.599Z,2.53
2019-03-09T12:55:45.971Z,0.90
2019-03-09T12:58:15.851Z,2.83
2019-03-09T13:00:45.435Z,2.20
2019-03-09T13:03:14.771Z,0.60
2019-03-09T13:05:47.092Z,0.70
2019-03-09T13:08:16.474Z,2.30
2019-03-09T13:10:45.876Z,1.33
2019-03-09T13:13:15.610Z,0.80
2019-03-09T13:15:45.267Z,0.60
2019-03-09T13:18:15.141Z,1.03
2019-03-09T13:20:49.779Z,0.70
2019-03-09T13:23:22.504Z,8.00
2019-03-09T13:25:54.735Z,0.80
2019-03-09T13:28:24.461Z,0.63
2019-03-09T13:30:53.922Z,0.87
2019-03-09T13:33:23.584Z,0.73
2019-03-09T13:35:53.343Z,1.10
2019-03-09T13:38:22.893Z,1.60
2019-03-09T13:40:53.000Z,0.80
2019-03-09T13:43:22.514Z,0.80
2019-03-09T13:45:52.148Z,3.57
2019-03-09T13:48:22.541Z,0.80
2019-03-09T13:50:57.244Z,3.83
2019-03-09T13:53:26.814Z,1.47
2019-03-09T13:55:57.294Z,1.43
2019-03-09T13:58:26.987Z,2.87
2019-03-09T14:00:59.636Z,2.97
2019-03-09T14:03:29.647Z,1.03
2019-03-09T14:05:59.394Z,3.20
2019-03-09T14:08:31.339Z,3.23
2019-03-09T14:11:02.066Z,5.23
2019-03-09T14:13:31.565Z,1.17
2019-03-09T14:16:01.269Z,4.73
2019-03-09T14:18:31.393Z,0.70
2019-03-09T14:21:07.108Z,1.77
2019-03-09T14:23:39.122Z,1.00
2019-03-09T14:26:09.166Z,0.90
2019-03-09T14:28:42.757Z,1.17
2019-03-09T14:31:12.857Z,0.90
2019-03-09T14:33:42.517Z,0.70
2019-03-09T14:36:12.423Z,0.73
2019-03-09T14:38:42.480Z,1.03
2019-03-09T14:41:12.163Z,1.73
2019-03-09T14:43:41.914Z,3.13
2019-03-09T14:46:11.884Z,2.40
2019-03-09T14:48:41.668Z,2.00
2019-03-09T14:51:11.446Z,4.13
2019-03-09T14:53:41.050Z,0.80
2019-03-09T14:56:10.716Z,1.03
2019-03-09T14:58:41.772Z,0.70
2019-03-09T15:01:11.530Z,0.77
2019-03-09T15:03:41.240Z,0.60
2019-03-09T15:06:11.051Z,2.03
2019-03-09T15:08:40.760Z,1.17
2019-03-09T15:11:10.747Z,0.50
2019-03-09T15:13:40.470Z,0.67
2019-03-09T15:16:10.215Z,2.10
2019-03-09T15:18:40.381Z,0.50
2019-03-09T15:21:10.106Z,3.03
2019-03-09T15:23:39.788Z,1.10
2019-03-09T15:26:09.475Z,1.27
2019-03-09T15:28:39.297Z,2.00
2019-03-09T15:31:09.838Z,0.70
2019-03-09T15:33:40.054Z,2.83
2019-03-09T15:36:09.997Z,0.77
2019-03-09T15:38:40.080Z,0.77
2019-03-09T15:41:11.440Z,0.70
2019-03-09T15:43:41.163Z,1.50
2019-03-09T15:46:12.449Z,0.50
2019-03-09T15:48:42.826Z,1.13
2019-03-09T15:51:12.631Z,0.70
2019-03-09T15:53:42.526Z,0.60
2019-03-09T15:56:12.617Z,1.17
2019-03-09T15:58:42.577Z,2.00
2019-03-09T16:01:12.400Z,0.90
2019-03-09T16:03:43.437Z,2.83
2019-03-09T16:06:13.441Z,3.00
2019-03-09T16:08:43.144Z,0.90
2019-03-09T16:11:12.986Z,0.77
2019-03-09T16:13:42.852Z,1.13
2019-03-09T16:16:12.589Z,1.20
2019-03-09T16:18:42.746Z,3.73
2019-03-09T16:21:12.564Z,0.97
2019-03-09T16:23:42.262Z,1.13
2019-03-09T16:26:12.760Z,1.87
2019-03-09T16:28:44.948Z,2.50
2019-03-09T16:31:14.805Z,1.43
2019-03-09T16:33:45.484Z,1.20
2019-03-09T16:36:15.402Z,5.13
2019-03-09T16:38:47.139Z,8.53
2019-03-09T16:41:16.853Z,2.33
2019-03-09T16:43:46.922Z,4.20
2019-03-09T16:46:18.123Z,3.00
2019-03-09T16:48:47.972Z,6.20
2019-03-09T16:51:17.887Z,1.27
2019-03-09T16:53:48.299Z,3.30
2019-03-09T16:56:20.408Z,2.40
2019-03-09T16:58:50.272Z,4.50
2019-03-09T17:01:20.488Z,1.83
2019-03-09T17:03:50.199Z,2.07
2019-03-09T17:06:19.968Z,2.50
2019-03-09T17:08:51.357Z,2.20
2019-03-09T17:11:21.126Z,4.10
2019-03-09T17:13:54.044Z,9.13
2019-03-09T17:16:24.109Z,4.20
2019-03-09T17:18:56.882Z,4.73
2019-03-09T17:21:26.682Z,4.80
2019-03-09T17:23:56.855Z,2.50
2019-03-09T17:26:26.634Z,9.80
2019-03-09T17:28:56.591Z,4.13
2019-03-09T17:31:27.051Z,2.30
2019-03-09T17:33:56.856Z,3.67
2019-03-09T17:36:27.626Z,3.70
2019-03-09T17:38:57.920Z,4.43
2019-03-09T17:41:30.455Z,2.47
2019-03-09T17:44:01.627Z,8.07
2019-03-09T17:46:31.953Z,7.23
2019-03-09T17:49:01.774Z,6.00
2019-03-09T17:51:31.741Z,4.53
2019-03-09T17:54:03.246Z,8.60
2019-03-09T17:56:33.083Z,8.03
2019-03-09T17:59:02.849Z,8.40
2019-03-09T18:01:36.065Z,7.13
2019-03-09T18:04:08.914Z,3.63
2019-03-09T18:06:41.672Z,3.87
2019-03-09T18:09:11.631Z,12.20
2019-03-09T18:11:41.527Z,7.23
2019-03-09T18:14:14.404Z,4.50
2019-03-09T18:16:52.417Z,5.03
2019-03-09T18:19:17.951Z,10.20
2019-03-09T18:21:47.793Z,5.47
2019-03-09T18:24:17.665Z,11.77
2019-03-09T18:26:47.568Z,7.27
2019-03-09T18:29:18.740Z,11.07
2019-03-09T18:31:48.466Z,12.13
2019-03-09T18:34:18.610Z,13.53
2019-03-09T18:36:48.418Z,10.83
2019-03-09T18:39:18.350Z,5.63
2019-03-09T18:41:48.630Z,9.70
2019-03-09T18:44:18.524Z,11.83
2019-03-09T18:46:48.300Z,9.57
2019-03-09T18:49:18.730Z,9.40
2019-03-09T18:51:48.602Z,7.80
2019-03-09T18:54:18.353Z,6.80
2019-03-09T18:56:48.306Z,9.37
2019-03-09T18:59:18.577Z,13.07
2019-03-09T19:01:50.100Z,13.63
2019-03-09T19:04:21.158Z,10.77
2019-03-09T19:06:50.957Z,15.83
2019-03-09T19:09:22.171Z,12.20
2019-03-09T19:11:51.989Z,10.37
2019-03-09T19:14:22.100Z,9.90
2019-03-09T19:16:52.407Z,13.40
2019-03-09T19:19:22.269Z,11.10
2019-03-09T19:21:52.086Z,11.43
2019-03-09T19:24:22.289Z,17.87
2019-03-09T19:26:52.204Z,14.93
2019-03-09T19:29:22.249Z,16.07
2019-03-09T19:31:52.484Z,13.73
2019-03-09T19:34:22.568Z,16.20
2019-03-09T19:36:52.801Z,12.40
2019-03-09T19:39:23.141Z,8.10
2019-03-09T19:41:54.002Z,13.27
2019-03-09T19:44:24.342Z,17.77
2019-03-09T19:46:55.255Z,10.33
2019-03-09T19:49:25.175Z,14.43
2019-03-09T19:51:56.553Z,17.57
2019-03-09T19:54:26.367Z,14.57
2019-03-09T19:56:56.380Z,16.17
2019-03-09T19:59:29.965Z,15.50
2019-03-09T20:01:59.941Z,13.00
2019-03-09T20:04:30.034Z,13.83
2019-03-09T20:07:01.622Z,11.33
2019-03-09T20:09:31.653Z,17.57
2019-03-09T20:12:02.271Z,23.13
2019-03-09T20:14:33.735Z,9.00
2019-03-09T20:17:03.600Z,25.63
2019-03-09T20:19:33.496Z,17.13
2019-03-09T20:22:07.966Z,16.07
2019-03-09T20:27:03.479Z,18.70
2019-03-09T20:29:33.759Z,11.47
2019-03-09T20:32:06.672Z,17.87
2019-03-09T20:34:43.474Z,18.27
2019-03-09T20:37:13.484Z,17.10
2019-03-09T20:39:43.392Z,17.00
2019-03-09T20:42:14.247Z,20.77
2019-03-09T20:44:45.308Z,17.37
2019-03-09T20:47:15.628Z,16.10
2019-03-09T20:49:45.965Z,16.23
2019-03-09T20:52:15.932Z,17.10
2019-03-09T20:54:45.947Z,15.40
2019-03-09T20:57:16.938Z,12.57
2019-03-09T20:59:47.204Z,20.03
2019-03-09T21:02:16.976Z,17.73
2019-03-09T21:04:46.807Z,16.00
2019-03-09T21:07:17.211Z,23.10
2019-03-09T21:09:48.117Z,13.33
2019-03-09T21:12:19.621Z,22.47
2019-03-09T21:14:51.818Z,20.10
2019-03-09T21:17:21.941Z,14.67
2019-03-09T21:19:54.033Z,13.97
2019-03-09T21:22:24.316Z,21.97
2019-03-09T21:24:57.300Z,23.63
2019-03-09T21:27:27.239Z,27.47
2019-03-09T21:29:57.572Z,20.30
2019-03-09T21:32:27.364Z,19.83
2019-03-09T21:34:57.360Z,15.37
2019-03-09T21:37:28.846Z,13.60
2019-03-09T21:39:58.553Z,19.43
2019-03-09T21:42:30.871Z,13.70
2019-03-09T21:45:02.138Z,26.77
2019-03-09T21:47:32.089Z,17.90
2019-03-09T21:50:11.288Z,19.53
2019-03-09T21:52:41.846Z,17.37
2019-03-09T21:55:13.731Z,18.60
2019-03-09T21:57:43.567Z,15.40
2019-03-09T22:00:14.174Z,20.23
2019-03-09T22:02:44.167Z,15.33
2019-03-09T22:05:14.607Z,18.20
2019-03-09T22:07:47.154Z,13.87
2019-03-09T22:10:16.741Z,21.97
2019-03-09T22:12:49.391Z,15.83
2019-03-09T22:15:19.100Z,14.00
2019-03-09T22:17:49.088Z,13.37
2019-03-09T22:20:20.458Z,13.27
2019-03-09T22:22:49.870Z,16.77
2019-03-09T22:25:19.279Z,14.43
2019-03-09T22:27:51.728Z,14.77
2019-03-09T22:30:22.742Z,15.00
2019-03-09T22:32:52.583Z,14.63
2019-03-09T22:35:22.696Z,15.27
2019-03-09T22:37:52.506Z,16.40
2019-03-09T22:40:24.965Z,16.73
2019-03-09T22:42:54.647Z,13.73
2019-03-09T22:45:26.156Z,19.17
2019-03-09T22:47:56.471Z,17.03
2019-03-09T22:50:26.040Z,12.20
2019-03-09T22:52:55.965Z,13.90
2019-03-09T22:55:25.473Z,15.30
2019-03-09T22:57:54.838Z,17.83
2019-03-09T23:00:24.803Z,13.60
2019-03-09T23:02:55.702Z,13.53
2019-03-09T23:05:25.257Z,17.23
2019-03-09T23:07:56.086Z,15.23
2019-03-09T23:10:25.462Z,18.07
2019-03-09T23:12:54.924Z,15.43
2019-03-09T23:15:25.124Z,15.70
2019-03-09T23:17:54.698Z,25.93
2019-03-09T23:20:24.123Z,17.80
2019-03-09T23:22:54.035Z,12.40
2019-03-09T23:25:23.648Z,17.40
2019-03-09T23:27:53.049Z,11.97
2019-03-09T23:30:22.888Z,9.73
2019-03-09T23:32:52.583Z,12.20
2019-03-09T23:35:22.660Z,11.53
2019-03-09T23:37:52.606Z,18.37
2019-03-09T23:40:22.143Z,19.00
2019-03-09T23:42:51.676Z,16.40
2019-03-09T23:45:21.650Z,15.47
2019-03-09T23:47:51.131Z,11.63
2019-03-09T23:50:21.497Z,19.90
2019-03-09T23:52:51.306Z,14.83
2019-03-09T23:55:22.960Z,22.63
2019-03-09T23:57:52.802Z,11.63
